sensor_id;sensor_type;location;lat;lon;timestamp;pressure;altitude;pressure_sealevel;temperature;humidity
21359;BME280;13506;50.852;20.632;2023-01-27T00:01:08;98425.44;;;-1.39;87.76
21359;BME280;13506;50.852;20.632;2023-01-27T00:03:36;98425.53;;;-1.42;88.28
21359;BME280;13506;50.852;20.632;2023-01-27T00:06:04;98419.38;;;-1.36;88.03
21359;BME280;13506;50.852;20.632;2023-01-27T00:08:38;98418.56;;;-1.37;87.67
21359;BME280;13506;50.852;20.632;2023-01-27T00:11:06;98421.00;;;-1.32;87.71
21359;BME280;13506;50.852;20.632;2023-01-27T00:13:52;98400.47;;;-1.32;88.35
21359;BME280;13506;50.852;20.632;2023-01-27T00:16:20;98409.84;;;-1.30;87.79
21359;BME280;13506;50.852;20.632;2023-01-27T00:18:48;98415.97;;;-1.35;88.47
21359;BME280;13506;50.852;20.632;2023-01-27T00:21:16;98414.25;;;-1.36;89.15
21359;BME280;13506;50.852;20.632;2023-01-27T00:24:02;98409.13;;;-1.36;88.92
21359;BME280;13506;50.852;20.632;2023-01-27T00:26:48;98415.25;;;-1.42;88.89
21359;BME280;13506;50.852;20.632;2023-01-27T00:29:18;98424.69;;;-1.42;89.11
21359;BME280;13506;50.852;20.632;2023-01-27T00:31:46;98424.75;;;-1.46;89.91
21359;BME280;13506;50.852;20.632;2023-01-27T00:34:31;98420.41;;;-1.43;89.91
21359;BME280;13506;50.852;20.632;2023-01-27T00:36:59;98434.78;;;-1.36;89.52
21359;BME280;13506;50.852;20.632;2023-01-27T00:39:29;98433.47;;;-1.53;89.43
21359;BME280;13506;50.852;20.632;2023-01-27T00:41:57;98439.91;;;-1.36;89.79
21359;BME280;13506;50.852;20.632;2023-01-27T00:44:25;98427.06;;;-1.35;89.16
21359;BME280;13506;50.852;20.632;2023-01-27T00:46:53;98435.59;;;-1.34;89.93
21359;BME280;13506;50.852;20.632;2023-01-27T00:49:21;98428.13;;;-1.43;90.67
21359;BME280;13506;50.852;20.632;2023-01-27T00:51:50;98430.13;;;-1.56;90.67
21359;BME280;13506;50.852;20.632;2023-01-27T00:54:20;98436.63;;;-1.41;90.31
21359;BME280;13506;50.852;20.632;2023-01-27T00:56:50;98431.34;;;-1.35;89.41
21359;BME280;13506;50.852;20.632;2023-01-27T00:59:18;98436.25;;;-1.26;89.94
21359;BME280;13506;50.852;20.632;2023-01-27T01:01:46;98436.25;;;-1.26;89.90
21359;BME280;13506;50.852;20.632;2023-01-27T01:04:14;98435.28;;;-1.20;89.12
21359;BME280;13506;50.852;20.632;2023-01-27T01:06:42;98432.50;;;-1.11;89.54
21359;BME280;13506;50.852;20.632;2023-01-27T01:09:12;98429.94;;;-1.11;88.78
21359;BME280;13506;50.852;20.632;2023-01-27T01:11:40;98426.41;;;-1.07;88.86
21359;BME280;13506;50.852;20.632;2023-01-27T01:14:09;98430.00;;;-1.13;88.51
21359;BME280;13506;50.852;20.632;2023-01-27T01:16:38;98430.19;;;-1.22;89.30
21359;BME280;13506;50.852;20.632;2023-01-27T01:19:08;98431.00;;;-1.20;88.75
21359;BME280;13506;50.852;20.632;2023-01-27T01:21:37;98424.09;;;-1.18;88.70
21359;BME280;13506;50.852;20.632;2023-01-27T01:24:05;98422.34;;;-1.16;88.82
21359;BME280;13506;50.852;20.632;2023-01-27T01:26:33;98425.72;;;-1.14;88.91
21359;BME280;13506;50.852;20.632;2023-01-27T01:29:01;98430.94;;;-1.17;88.40
21359;BME280;13506;50.852;20.632;2023-01-27T01:31:31;98427.59;;;-1.20;89.14
21359;BME280;13506;50.852;20.632;2023-01-27T01:33:59;98433.69;;;-1.26;89.17
21359;BME280;13506;50.852;20.632;2023-01-27T01:36:27;98426.13;;;-1.32;90.04
21359;BME280;13506;50.852;20.632;2023-01-27T01:38:56;98426.88;;;-1.26;89.05
21359;BME280;13506;50.852;20.632;2023-01-27T01:41:25;98424.34;;;-1.27;89.67
21359;BME280;13506;50.852;20.632;2023-01-27T01:43:53;98414.06;;;-1.27;89.73
21359;BME280;13506;50.852;20.632;2023-01-27T01:46:22;98419.91;;;-1.20;88.85
21359;BME280;13506;50.852;20.632;2023-01-27T01:48:53;98420.25;;;-1.36;90.33
21359;BME280;13506;50.852;20.632;2023-01-27T01:51:28;98418.44;;;-1.32;89.88
21359;BME280;13506;50.852;20.632;2023-01-27T01:54:00;98421.75;;;-1.27;89.46
21359;BME280;13506;50.852;20.632;2023-01-27T01:56:32;98429.53;;;-1.30;90.23
21359;BME280;13506;50.852;20.632;2023-01-27T01:59:05;98432.09;;;-1.30;90.17
21359;BME280;13506;50.852;20.632;2023-01-27T02:01:34;98422.56;;;-1.25;89.73
21359;BME280;13506;50.852;20.632;2023-01-27T02:04:07;98424.09;;;-1.18;89.64
21359;BME280;13506;50.852;20.632;2023-01-27T02:06:41;98419.81;;;-1.17;89.06
21359;BME280;13506;50.852;20.632;2023-01-27T02:09:11;98418.13;;;-1.18;89.20
21359;BME280;13506;50.852;20.632;2023-01-27T02:11:39;98421.50;;;-1.16;89.77
21359;BME280;13506;50.852;20.632;2023-01-27T02:14:10;98420.06;;;-1.28;90.10
21359;BME280;13506;50.852;20.632;2023-01-27T02:16:39;98420.97;;;-1.29;89.90
21359;BME280;13506;50.852;20.632;2023-01-27T02:19:12;98425.31;;;-1.33;90.08
21359;BME280;13506;50.852;20.632;2023-01-27T02:21:45;98406.88;;;-1.49;90.20
21359;BME280;13506;50.852;20.632;2023-01-27T02:24:16;98408.69;;;-1.54;90.85
21359;BME280;13506;50.852;20.632;2023-01-27T02:26:47;98414.84;;;-1.61;90.48
21359;BME280;13506;50.852;20.632;2023-01-27T02:29:16;98412.84;;;-1.87;90.31
21359;BME280;13506;50.852;20.632;2023-01-27T02:31:44;98413.53;;;-1.80;90.12
21359;BME280;13506;50.852;20.632;2023-01-27T02:34:15;98415.44;;;-1.89;90.26
21359;BME280;13506;50.852;20.632;2023-01-27T02:36:49;98406.84;;;-1.88;90.37
21359;BME280;13506;50.852;20.632;2023-01-27T02:39:20;98401.53;;;-2.20;91.66
21359;BME280;13506;50.852;20.632;2023-01-27T02:41:54;98412.78;;;-2.28;92.77
21359;BME280;13506;50.852;20.632;2023-01-27T02:44:24;98405.84;;;-2.22;92.56
21359;BME280;13506;50.852;20.632;2023-01-27T02:46:52;98392.75;;;-2.52;89.01
21359;BME280;13506;50.852;20.632;2023-01-27T02:49:20;98395.94;;;-2.86;89.47
21359;BME280;13506;50.852;20.632;2023-01-27T02:51:49;98401.06;;;-2.86;88.52
21359;BME280;13506;50.852;20.632;2023-01-27T02:54:17;98396.66;;;-2.78;89.75
21359;BME280;13506;50.852;20.632;2023-01-27T02:56:45;98394.66;;;-2.63;89.30
21359;BME280;13506;50.852;20.632;2023-01-27T02:59:17;98402.16;;;-2.53;89.34
21359;BME280;13506;50.852;20.632;2023-01-27T03:01:47;98402.53;;;-2.73;89.34
21359;BME280;13506;50.852;20.632;2023-01-27T03:04:15;98396.47;;;-2.69;89.20
21359;BME280;13506;50.852;20.632;2023-01-27T03:06:44;98397.75;;;-2.93;88.84
21359;BME280;13506;50.852;20.632;2023-01-27T03:09:12;98408.47;;;-2.71;89.11
21359;BME280;13506;50.852;20.632;2023-01-27T03:11:40;98408.09;;;-3.00;90.89
21359;BME280;13506;50.852;20.632;2023-01-27T03:14:26;98402.53;;;-3.25;91.04
21359;BME280;13506;50.852;20.632;2023-01-27T03:17:13;98417.56;;;-3.61;93.49
21359;BME280;13506;50.852;20.632;2023-01-27T03:19:58;98426.13;;;-3.65;95.18
21359;BME280;13506;50.852;20.632;2023-01-27T03:22:28;98412.38;;;-3.55;95.18
21359;BME280;13506;50.852;20.632;2023-01-27T03:24:56;98416.56;;;-3.49;94.43
21359;BME280;13506;50.852;20.632;2023-01-27T03:27:25;98421.44;;;-3.34;93.65
21359;BME280;13506;50.852;20.632;2023-01-27T03:30:20;98422.25;;;-3.31;93.26
21359;BME280;13506;50.852;20.632;2023-01-27T03:33:00;98424.38;;;-3.60;94.27
21359;BME280;13506;50.852;20.632;2023-01-27T03:35:43;98427.63;;;-3.51;94.66
21359;BME280;13506;50.852;20.632;2023-01-27T03:38:18;98431.75;;;-3.40;95.11
21359;BME280;13506;50.852;20.632;2023-01-27T03:41:03;98432.13;;;-3.09;94.23
21359;BME280;13506;50.852;20.632;2023-01-27T03:43:49;98429.81;;;-3.24;94.12
21359;BME280;13506;50.852;20.632;2023-01-27T03:46:36;98429.75;;;-3.21;95.54
21359;BME280;13506;50.852;20.632;2023-01-27T03:49:04;98423.31;;;-3.45;95.72
21359;BME280;13506;50.852;20.632;2023-01-27T03:51:32;98418.03;;;-3.35;95.51
21359;BME280;13506;50.852;20.632;2023-01-27T03:54:00;98434.22;;;-3.33;96.25
21359;BME280;13506;50.852;20.632;2023-01-27T03:56:28;98431.44;;;-3.19;96.12
21359;BME280;13506;50.852;20.632;2023-01-27T03:58:56;98426.19;;;-3.10;95.69
21359;BME280;13506;50.852;20.632;2023-01-27T04:01:24;98424.53;;;-3.14;96.22
21359;BME280;13506;50.852;20.632;2023-01-27T04:03:53;98440.97;;;-3.30;96.61
21359;BME280;13506;50.852;20.632;2023-01-27T04:06:40;98435.91;;;-3.33;96.87
21359;BME280;13506;50.852;20.632;2023-01-27T04:09:32;98429.88;;;-3.29;97.54
21359;BME280;13506;50.852;20.632;2023-01-27T04:12:02;98436.00;;;-3.39;97.76
21359;BME280;13506;50.852;20.632;2023-01-27T04:14:32;98445.34;;;-3.35;97.91
21359;BME280;13506;50.852;20.632;2023-01-27T04:17:02;98442.72;;;-3.31;98.07
21359;BME280;13506;50.852;20.632;2023-01-27T04:19:32;98433.25;;;-3.27;97.79
21359;BME280;13506;50.852;20.632;2023-01-27T04:22:01;98441.06;;;-3.36;98.26
21359;BME280;13506;50.852;20.632;2023-01-27T04:24:29;98440.81;;;-3.18;97.49
21359;BME280;13506;50.852;20.632;2023-01-27T04:26:59;98440.97;;;-3.30;98.26
21359;BME280;13506;50.852;20.632;2023-01-27T04:29:29;98447.19;;;-3.46;99.51
21359;BME280;13506;50.852;20.632;2023-01-27T04:31:57;98451.94;;;-3.22;98.76
21359;BME280;13506;50.852;20.632;2023-01-27T04:34:26;98451.97;;;-3.23;98.26
21359;BME280;13506;50.852;20.632;2023-01-27T04:36:56;98456.41;;;-3.35;98.46
21359;BME280;13506;50.852;20.632;2023-01-27T04:39:25;98451.13;;;-3.24;98.68
21359;BME280;13506;50.852;20.632;2023-01-27T04:41:55;98449.94;;;-3.01;97.41
21359;BME280;13506;50.852;20.632;2023-01-27T04:44:23;98451.03;;;-3.18;97.57
21359;BME280;13506;50.852;20.632;2023-01-27T04:46:52;98459.63;;;-3.23;97.62
21359;BME280;13506;50.852;20.632;2023-01-27T04:49:21;98452.13;;;-3.34;98.71
21359;BME280;13506;50.852;20.632;2023-01-27T04:51:49;98456.34;;;-3.30;98.47
21359;BME280;13506;50.852;20.632;2023-01-27T04:54:18;98459.38;;;-3.06;98.47
21359;BME280;13506;50.852;20.632;2023-01-27T04:56:55;98455.81;;;-2.96;97.25
21359;BME280;13506;50.852;20.632;2023-01-27T04:59:24;98447.88;;;-2.79;97.21
21359;BME280;13506;50.852;20.632;2023-01-27T05:01:52;98455.28;;;-2.64;96.64
21359;BME280;13506;50.852;20.632;2023-01-27T05:04:20;98460.16;;;-2.50;95.61
21359;BME280;13506;50.852;20.632;2023-01-27T05:06:48;98462.47;;;-2.36;95.85
21359;BME280;13506;50.852;20.632;2023-01-27T05:09:18;98458.94;;;-2.29;94.94
21359;BME280;13506;50.852;20.632;2023-01-27T05:11:45;98470.72;;;-2.20;94.17
21359;BME280;13506;50.852;20.632;2023-01-27T05:14:14;98467.16;;;-2.13;94.02
21359;BME280;13506;50.852;20.632;2023-01-27T05:16:42;98462.84;;;-2.11;93.36
21359;BME280;13506;50.852;20.632;2023-01-27T05:19:10;98468.59;;;-2.00;93.70
21359;BME280;13506;50.852;20.632;2023-01-27T05:21:38;98469.41;;;-1.96;94.18
21359;BME280;13506;50.852;20.632;2023-01-27T05:24:06;98472.66;;;-1.88;92.87
21359;BME280;13506;50.852;20.632;2023-01-27T05:26:35;98464.94;;;-1.87;93.20
21359;BME280;13506;50.852;20.632;2023-01-27T05:29:03;98475.13;;;-1.83;93.24
21359;BME280;13506;50.852;20.632;2023-01-27T05:31:31;98475.09;;;-1.80;92.50
21359;BME280;13506;50.852;20.632;2023-01-27T05:34:01;98453.78;;;-1.84;92.46
21359;BME280;13506;50.852;20.632;2023-01-27T05:36:29;98465.53;;;-1.74;92.80
21359;BME280;13506;50.852;20.632;2023-01-27T05:38:58;98468.03;;;-1.71;92.45
21359;BME280;13506;50.852;20.632;2023-01-27T05:41:28;98479.09;;;-1.69;92.16
21359;BME280;13506;50.852;20.632;2023-01-27T05:43:59;98475.69;;;-1.68;92.48
21359;BME280;13506;50.852;20.632;2023-01-27T05:46:28;98471.31;;;-1.64;92.39
21359;BME280;13506;50.852;20.632;2023-01-27T05:49:00;98466.34;;;-1.70;92.02
21359;BME280;13506;50.852;20.632;2023-01-27T05:51:31;98468.78;;;-1.65;91.49
21359;BME280;13506;50.852;20.632;2023-01-27T05:54:00;98460.91;;;-1.58;91.89
21359;BME280;13506;50.852;20.632;2023-01-27T05:56:28;98474.75;;;-1.63;91.61
21359;BME280;13506;50.852;20.632;2023-01-27T05:58:59;98484.22;;;-1.67;91.88
21359;BME280;13506;50.852;20.632;2023-01-27T06:01:29;98469.75;;;-1.71;92.11
21359;BME280;13506;50.852;20.632;2023-01-27T06:03:58;98491.78;;;-1.61;91.86
21359;BME280;13506;50.852;20.632;2023-01-27T06:06:28;98490.06;;;-1.62;91.80
21359;BME280;13506;50.852;20.632;2023-01-27T06:08:57;98478.06;;;-1.60;91.47
21359;BME280;13506;50.852;20.632;2023-01-27T06:11:25;98488.31;;;-1.60;91.55
21359;BME280;13506;50.852;20.632;2023-01-27T06:13:54;98491.09;;;-1.71;91.92
21359;BME280;13506;50.852;20.632;2023-01-27T06:16:23;98498.06;;;-1.76;91.63
21359;BME280;13506;50.852;20.632;2023-01-27T06:18:51;98489.41;;;-1.70;91.43
21359;BME280;13506;50.852;20.632;2023-01-27T06:21:19;98485.22;;;-1.74;92.30
21359;BME280;13506;50.852;20.632;2023-01-27T06:23:48;98487.00;;;-1.79;91.78
21359;BME280;13506;50.852;20.632;2023-01-27T06:26:17;98497.34;;;-1.82;92.26
21359;BME280;13506;50.852;20.632;2023-01-27T06:28:46;98502.41;;;-1.81;92.50
21359;BME280;13506;50.852;20.632;2023-01-27T06:31:15;98500.78;;;-1.85;91.99
21359;BME280;13506;50.852;20.632;2023-01-27T06:33:44;98494.72;;;-1.79;92.98
21359;BME280;13506;50.852;20.632;2023-01-27T06:36:14;98508.31;;;-1.76;92.49
21359;BME280;13506;50.852;20.632;2023-01-27T06:38:42;98510.03;;;-1.76;92.86
21359;BME280;13506;50.852;20.632;2023-01-27T06:41:10;98513.50;;;-1.79;91.95
21359;BME280;13506;50.852;20.632;2023-01-27T06:43:39;98515.19;;;-1.76;91.89
21359;BME280;13506;50.852;20.632;2023-01-27T06:46:06;98508.34;;;-1.77;92.49
21359;BME280;13506;50.852;20.632;2023-01-27T06:48:35;98518.78;;;-1.87;91.57
21359;BME280;13506;50.852;20.632;2023-01-27T06:51:05;98513.44;;;-1.76;92.55
21359;BME280;13506;50.852;20.632;2023-01-27T06:53:33;98516.03;;;-1.77;92.70
21359;BME280;13506;50.852;20.632;2023-01-27T06:56:03;98525.44;;;-1.78;92.18
21359;BME280;13506;50.852;20.632;2023-01-27T06:58:31;98530.19;;;-2.03;92.61
21359;BME280;13506;50.852;20.632;2023-01-27T07:00:59;98524.88;;;-1.94;93.16
21359;BME280;13506;50.852;20.632;2023-01-27T07:03:29;98528.34;;;-1.95;93.05
21359;BME280;13506;50.852;20.632;2023-01-27T07:05:57;98528.56;;;-2.07;92.83
21359;BME280;13506;50.852;20.632;2023-01-27T07:08:26;98534.38;;;-1.97;92.75
21359;BME280;13506;50.852;20.632;2023-01-27T07:10:54;98535.13;;;-1.94;93.36
21359;BME280;13506;50.852;20.632;2023-01-27T07:13:22;98530.00;;;-1.94;93.04
21359;BME280;13506;50.852;20.632;2023-01-27T07:15:53;98537.56;;;-1.84;93.02
21359;BME280;13506;50.852;20.632;2023-01-27T07:18:22;98531.50;;;-1.82;92.79
21359;BME280;13506;50.852;20.632;2023-01-27T07:20:50;98546.75;;;-1.74;92.90
21359;BME280;13506;50.852;20.632;2023-01-27T07:23:19;98549.28;;;-1.73;91.87
21359;BME280;13506;50.852;20.632;2023-01-27T07:25:48;98538.91;;;-1.68;92.08
21359;BME280;13506;50.852;20.632;2023-01-27T07:28:17;98537.09;;;-1.61;91.45
21359;BME280;13506;50.852;20.632;2023-01-27T07:30:44;98553.22;;;-1.55;92.30
21359;BME280;13506;50.852;20.632;2023-01-27T07:33:13;98550.56;;;-1.50;91.58
21359;BME280;13506;50.852;20.632;2023-01-27T07:35:41;98558.22;;;-1.49;91.75
21359;BME280;13506;50.852;20.632;2023-01-27T07:38:09;98560.66;;;-1.42;91.75
21359;BME280;13506;50.852;20.632;2023-01-27T07:40:37;98557.22;;;-1.43;90.83
21359;BME280;13506;50.852;20.632;2023-01-27T07:43:08;98557.16;;;-1.38;91.06
21359;BME280;13506;50.852;20.632;2023-01-27T07:45:39;98558.91;;;-1.40;90.92
21359;BME280;13506;50.852;20.632;2023-01-27T07:48:08;98553.63;;;-1.34;91.13
21359;BME280;13506;50.852;20.632;2023-01-27T07:50:39;98553.59;;;-1.31;91.28
21359;BME280;13506;50.852;20.632;2023-01-27T07:53:10;98552.16;;;-1.44;91.24
21359;BME280;13506;50.852;20.632;2023-01-27T07:55:38;98547.75;;;-1.38;90.83
21359;BME280;13506;50.852;20.632;2023-01-27T07:58:07;98550.56;;;-1.50;93.41
21359;BME280;13506;50.852;20.632;2023-01-27T08:00:36;98550.56;;;-1.50;93.05
21359;BME280;13506;50.852;20.632;2023-01-27T08:03:04;98544.72;;;-1.57;93.00
21359;BME280;13506;50.852;20.632;2023-01-27T08:05:33;98553.09;;;-1.94;92.94
21359;BME280;13506;50.852;20.632;2023-01-27T08:08:01;98555.59;;;-1.91;94.71
21359;BME280;13506;50.852;20.632;2023-01-27T08:10:30;98550.41;;;-1.86;95.74
21359;BME280;13506;50.852;20.632;2023-01-27T08:12:58;98557.97;;;-1.80;95.48
21359;BME280;13506;50.852;20.632;2023-01-27T08:15:27;98557.03;;;-1.76;96.71
21359;BME280;13506;50.852;20.632;2023-01-27T08:17:56;98557.19;;;-1.83;97.57
21359;BME280;13506;50.852;20.632;2023-01-27T08:20:26;98557.94;;;-1.78;97.50
21359;BME280;13506;50.852;20.632;2023-01-27T08:22:55;98543.75;;;-1.96;98.15
21359;BME280;13506;50.852;20.632;2023-01-27T08:25:23;98546.88;;;-1.80;98.41
21359;BME280;13506;50.852;20.632;2023-01-27T08:27:53;98550.47;;;-1.91;100.00
21359;BME280;13506;50.852;20.632;2023-01-27T08:30:22;98551.09;;;-1.78;98.91
21359;BME280;13506;50.852;20.632;2023-01-27T08:32:52;98554.50;;;-1.77;99.10
21359;BME280;13506;50.852;20.632;2023-01-27T08:35:20;98545.69;;;-1.64;98.05
21359;BME280;13506;50.852;20.632;2023-01-27T08:37:48;98548.91;;;-1.54;98.46
21359;BME280;13506;50.852;20.632;2023-01-27T08:40:17;98547.75;;;-1.38;97.86
21359;BME280;13506;50.852;20.632;2023-01-27T08:42:48;98551.97;;;-1.35;97.54
21359;BME280;13506;50.852;20.632;2023-01-27T08:45:16;98542.44;;;-1.30;97.20
21359;BME280;13506;50.852;20.632;2023-01-27T08:47:44;98548.28;;;-0.85;97.47
21359;BME280;13506;50.852;20.632;2023-01-27T08:50:14;98544.47;;;-0.32;93.94
21359;BME280;13506;50.852;20.632;2023-01-27T08:52:42;98539.56;;;-0.07;92.92
21359;BME280;13506;50.852;20.632;2023-01-27T08:55:10;98544.72;;;0.24;92.48
21359;BME280;13506;50.852;20.632;2023-01-27T08:57:38;98546.97;;;0.35;90.55
21359;BME280;13506;50.852;20.632;2023-01-27T09:00:07;98546.09;;;0.37;88.60
21359;BME280;13506;50.852;20.632;2023-01-27T09:02:36;98542.16;;;0.54;87.56
21359;BME280;13506;50.852;20.632;2023-01-27T09:05:04;98554.13;;;0.86;86.91
21359;BME280;13506;50.852;20.632;2023-01-27T09:07:34;98551.31;;;1.22;85.49
21359;BME280;13506;50.852;20.632;2023-01-27T09:10:03;98556.78;;;1.66;83.07
21359;BME280;13506;50.852;20.632;2023-01-27T09:12:31;98554.84;;;1.98;79.94
21359;BME280;13506;50.852;20.632;2023-01-27T09:14:59;98561.72;;;2.73;79.13
21359;BME280;13506;50.852;20.632;2023-01-27T09:17:27;98550.38;;;3.45;73.35
21359;BME280;13506;50.852;20.632;2023-01-27T09:19:55;98552.66;;;4.34;74.31
21359;BME280;13506;50.852;20.632;2023-01-27T09:22:24;98548.63;;;4.66;72.31
21359;BME280;13506;50.852;20.632;2023-01-27T09:24:53;98555.03;;;4.39;69.41
21359;BME280;13506;50.852;20.632;2023-01-27T09:27:21;98555.97;;;3.76;66.57
21359;BME280;13506;50.852;20.632;2023-01-27T09:29:48;98557.53;;;3.38;67.46
21359;BME280;13506;50.852;20.632;2023-01-27T09:32:17;98560.56;;;3.03;69.81
21359;BME280;13506;50.852;20.632;2023-01-27T09:34:44;98572.53;;;2.34;69.73
21359;BME280;13506;50.852;20.632;2023-01-27T09:37:13;98568.03;;;2.15;71.02
21359;BME280;13506;50.852;20.632;2023-01-27T09:39:45;98564.09;;;2.30;72.21
21359;BME280;13506;50.852;20.632;2023-01-27T09:42:41;98561.16;;;2.39;72.97
21359;BME280;13506;50.852;20.632;2023-01-27T09:45:38;98573.72;;;2.74;72.16
21359;BME280;13506;50.852;20.632;2023-01-27T09:51:32;98568.09;;;5.32;62.65
21359;BME280;13506;50.852;20.632;2023-01-27T09:54:22;98555.19;;;6.53;56.86
21359;BME280;13506;50.852;20.632;2023-01-27T09:57:02;98561.03;;;8.44;56.11
21359;BME280;13506;50.852;20.632;2023-01-27T09:59:55;98553.09;;;9.84;53.62
21359;BME280;13506;50.852;20.632;2023-01-27T10:02:52;98564.06;;;11.05;46.25
21359;BME280;13506;50.852;20.632;2023-01-27T10:05:56;98568.06;;;11.34;43.01
21359;BME280;13506;50.852;20.632;2023-01-27T10:09:09;98563.81;;;10.20;40.24
21359;BME280;13506;50.852;20.632;2023-01-27T10:11:47;98572.13;;;9.99;42.88
21359;BME280;13506;50.852;20.632;2023-01-27T10:14:31;98575.88;;;9.13;42.22
21359;BME280;13506;50.852;20.632;2023-01-27T10:17:23;98573.53;;;8.37;43.80
21359;BME280;13506;50.852;20.632;2023-01-27T10:20:09;98579.50;;;7.80;45.94
21359;BME280;13506;50.852;20.632;2023-01-27T10:22:49;98577.34;;;7.25;46.93
21359;BME280;13506;50.852;20.632;2023-01-27T10:25:33;98577.53;;;7.22;48.12
21359;BME280;13506;50.852;20.632;2023-01-27T10:28:12;98585.84;;;4.45;50.23
21359;BME280;13506;50.852;20.632;2023-01-27T10:30:47;98589.34;;;4.03;53.68
21359;BME280;13506;50.852;20.632;2023-01-27T10:33:20;98588.25;;;3.68;53.98
21359;BME280;13506;50.852;20.632;2023-01-27T10:35:51;98575.91;;;2.61;57.84
21359;BME280;13506;50.852;20.632;2023-01-27T10:38:32;98577.78;;;2.81;57.38
21359;BME280;13506;50.852;20.632;2023-01-27T10:41:14;98581.88;;;2.63;57.54
21359;BME280;13506;50.852;20.632;2023-01-27T10:43:56;98584.63;;;2.58;57.40
21359;BME280;13506;50.852;20.632;2023-01-27T10:46:37;98591.41;;;2.36;57.28
21359;BME280;13506;50.852;20.632;2023-01-27T10:49:13;98588.91;;;2.34;57.91
21359;BME280;13506;50.852;20.632;2023-01-27T10:51:53;98592.09;;;2.16;58.77
21359;BME280;13506;50.852;20.632;2023-01-27T10:54:27;98593.50;;;1.99;58.85
21359;BME280;13506;50.852;20.632;2023-01-27T10:57:05;98591.59;;;1.53;59.96
21359;BME280;13506;50.852;20.632;2023-01-27T10:59:40;98595.44;;;1.11;62.99
21359;BME280;13506;50.852;20.632;2023-01-27T11:02:16;98592.91;;;1.10;62.47
21359;BME280;13506;50.852;20.632;2023-01-27T11:04:55;98590.19;;;0.55;66.26
21359;BME280;13506;50.852;20.632;2023-01-27T11:07:25;98588.16;;;0.66;64.72
21359;BME280;13506;50.852;20.632;2023-01-27T11:09:56;98590.94;;;0.27;66.87
21359;BME280;13506;50.852;20.632;2023-01-27T11:12:30;98582.41;;;0.27;68.47
21359;BME280;13506;50.852;20.632;2023-01-27T11:15:01;98581.25;;;0.37;66.92
21359;BME280;13506;50.852;20.632;2023-01-27T11:17:40;98584.78;;;0.33;67.00
21359;BME280;13506;50.852;20.632;2023-01-27T11:20:27;98579.81;;;0.27;67.13
21359;BME280;13506;50.852;20.632;2023-01-27T11:23:04;98570.84;;;0.09;68.95
21359;BME280;13506;50.852;20.632;2023-01-27T11:25:46;98569.91;;;-0.21;71.41
21359;BME280;13506;50.852;20.632;2023-01-27T11:28:27;98563.97;;;-0.24;71.49
21359;BME280;13506;50.852;20.632;2023-01-27T11:31:07;98553.09;;;-0.35;73.93
21359;BME280;13506;50.852;20.632;2023-01-27T11:33:53;98555.84;;;-0.41;74.73
21359;BME280;13506;50.852;20.632;2023-01-27T11:36:26;98569.50;;;-0.39;73.79
21359;BME280;13506;50.852;20.632;2023-01-27T11:38:55;98573.91;;;-0.46;75.09
21359;BME280;13506;50.852;20.632;2023-01-27T11:41:25;98562.56;;;-0.37;74.81
21359;BME280;13506;50.852;20.632;2023-01-27T11:43:53;98571.97;;;-0.36;76.23
21359;BME280;13506;50.852;20.632;2023-01-27T11:46:23;98572.25;;;-0.48;78.20
21359;BME280;13506;50.852;20.632;2023-01-27T11:48:53;98583.31;;;-0.43;78.10
21359;BME280;13506;50.852;20.632;2023-01-27T11:51:26;98574.56;;;-0.73;77.35
21359;BME280;13506;50.852;20.632;2023-01-27T11:54:04;98571.66;;;-0.95;81.01
21359;BME280;13506;50.852;20.632;2023-01-27T11:56:35;98573.94;;;-0.83;80.41
21359;BME280;13506;50.852;20.632;2023-01-27T11:59:07;98578.50;;;-0.58;77.45
21359;BME280;13506;50.852;20.632;2023-01-27T12:01:42;98571.97;;;-0.72;78.69
21359;BME280;13506;50.852;20.632;2023-01-27T12:04:18;98564.94;;;-0.63;79.10
21359;BME280;13506;50.852;20.632;2023-01-27T12:06:53;98563.69;;;-0.47;76.99
21359;BME280;13506;50.852;20.632;2023-01-27T12:09:32;98555.97;;;-0.47;75.88
21359;BME280;13506;50.852;20.632;2023-01-27T12:12:10;98558.47;;;-0.44;75.94
21359;BME280;13506;50.852;20.632;2023-01-27T12:14:48;98559.28;;;-0.42;74.84
21359;BME280;13506;50.852;20.632;2023-01-27T12:17:23;98555.75;;;-0.38;73.34
21359;BME280;13506;50.852;20.632;2023-01-27T12:19:58;98558.97;;;-0.64;73.27
21359;BME280;13506;50.852;20.632;2023-01-27T12:22:32;98564.41;;;-0.42;72.74
21359;BME280;13506;50.852;20.632;2023-01-27T12:25:03;98565.81;;;-1.02;72.73
21359;BME280;13506;50.852;20.632;2023-01-27T12:27:40;98564.75;;;-0.93;72.93
21359;BME280;13506;50.852;20.632;2023-01-27T12:30:20;98564.34;;;-0.75;73.66
21359;BME280;13506;50.852;20.632;2023-01-27T12:32:49;98565.28;;;-1.19;73.28
21359;BME280;13506;50.852;20.632;2023-01-27T12:35:21;98567.59;;;-1.07;72.95
21359;BME280;13506;50.852;20.632;2023-01-27T12:37:58;98568.28;;;-0.99;73.94
21359;BME280;13506;50.852;20.632;2023-01-27T12:40:29;98568.31;;;-1.00;74.08
21359;BME280;13506;50.852;20.632;2023-01-27T12:43:12;98569.91;;;-1.35;76.17
21359;BME280;13506;50.852;20.632;2023-01-27T12:45:42;98551.84;;;-1.31;75.92
21359;BME280;13506;50.852;20.632;2023-01-27T12:48:19;98558.22;;;-1.08;76.46
21359;BME280;13506;50.852;20.632;2023-01-27T12:51:03;98564.63;;;-0.89;75.25
21359;BME280;13506;50.852;20.632;2023-01-27T12:53:33;98565.22;;;-0.76;74.62
21359;BME280;13506;50.852;20.632;2023-01-27T12:56:10;98566.81;;;-0.72;75.45
21359;BME280;13506;50.852;20.632;2023-01-27T12:58:40;98566.78;;;-1.09;78.85
21359;BME280;13506;50.852;20.632;2023-01-27T13:01:24;98567.34;;;-1.35;79.36
21359;BME280;13506;50.852;20.632;2023-01-27T13:03:56;98582.31;;;-1.14;79.74
21359;BME280;13506;50.852;20.632;2023-01-27T13:06:37;98575.38;;;-1.09;77.96
21359;BME280;13506;50.852;20.632;2023-01-27T13:09:25;98574.13;;;-0.92;76.89
21359;BME280;13506;50.852;20.632;2023-01-27T13:11:54;98579.00;;;-0.80;75.78
21359;BME280;13506;50.852;20.632;2023-01-27T13:14:27;98561.22;;;-0.88;74.85
21359;BME280;13506;50.852;20.632;2023-01-27T13:16:57;98578.84;;;-0.72;73.00
21359;BME280;13506;50.852;20.632;2023-01-27T13:19:33;98578.19;;;-0.82;71.60
21359;BME280;13506;50.852;20.632;2023-01-27T13:22:04;98574.84;;;-0.86;71.26